sensor_id;sensor_type;location;lat;lon;timestamp;temperature;humidity
3816;DHT22;1923;48.154;11.536;2023-06-24T00:00:24;18.90;99.90
3816;DHT22;1923;48.154;11.536;2023-06-24T00:02:53;18.90;99.90
3816;DHT22;1923;48.154;11.536;2023-06-24T00:05:23;18.90;99.90
3816;DHT22;1923;48.154;11.536;2023-06-24T00:07:58;18.80;99.90
3816;DHT22;1923;48.154;11.536;2023-06-24T00:10:30;18.90;99.90
3816;DHT22;1923;48.154;11.536;2023-06-24T00:12:58;18.80;99.90
3816;DHT22;1923;48.154;11.536;2023-06-24T00:15:28;18.90;99.90
3816;DHT22;1923;48.154;11.536;2023-06-24T00:17:57;18.80;99.90
3816;DHT22;1923;48.154;11.536;2023-06-24T00:20:33;18.80;99.90
3816;DHT22;1923;48.154;11.536;2023-06-24T00:23:01;18.90;99.90
3816;DHT22;1923;48.154;11.536;2023-06-24T00:25:30;18.90;99.90
3816;DHT22;1923;48.154;11.536;2023-06-24T00:27:58;18.90;99.90
3816;DHT22;1923;48.154;11.536;2023-06-24T00:30:26;18.80;99.90
3816;DHT22;1923;48.154;11.536;2023-06-24T00:32:54;18.90;99.90
3816;DHT22;1923;48.154;11.536;2023-06-24T00:35:24;18.80;99.90
3816;DHT22;1923;48.154;11.536;2023-06-24T00:37:52;18.80;99.90
3816;DHT22;1923;48.154;11.536;2023-06-24T00:40:25;18.80;99.90
3816;DHT22;1923;48.154;11.536;2023-06-24T00:42:53;18.80;99.90
3816;DHT22;1923;48.154;11.536;2023-06-24T00:45:22;18.60;99.90
3816;DHT22;1923;48.154;11.536;2023-06-24T00:47:50;18.60;99.90
3816;DHT22;1923;48.154;11.536;2023-06-24T00:50:18;18.70;99.90
3816;DHT22;1923;48.154;11.536;2023-06-24T00:52:48;18.80;99.90
3816;DHT22;1923;48.154;11.536;2023-06-24T00:55:17;18.80;99.90
3816;DHT22;1923;48.154;11.536;2023-06-24T00:57:48;18.80;99.90
3816;DHT22;1923;48.154;11.536;2023-06-24T01:00:18;18.90;99.90
3816;DHT22;1923;48.154;11.536;2023-06-24T01:02:49;18.90;99.90
3816;DHT22;1923;48.154;11.536;2023-06-24T01:05:17;18.90;99.90
3816;DHT22;1923;48.154;11.536;2023-06-24T01:07:51;18.90;99.90
3816;DHT22;1923;48.154;11.536;2023-06-24T01:10:23;18.90;99.90
3816;DHT22;1923;48.154;11.536;2023-06-24T01:12:51;18.90;99.90
3816;DHT22;1923;48.154;11.536;2023-06-24T01:15:20;18.90;99.90
3816;DHT22;1923;48.154;11.536;2023-06-24T01:17:52;18.80;99.90
3816;DHT22;1923;48.154;11.536;2023-06-24T01:20:27;18.80;99.90
3816;DHT22;1923;48.154;11.536;2023-06-24T01:23:29;18.80;99.90
3816;DHT22;1923;48.154;11.536;2023-06-24T01:26:16;18.80;99.90
3816;DHT22;1923;48.154;11.536;2023-06-24T01:31:56;18.60;99.90
3816;DHT22;1923;48.154;11.536;2023-06-24T01:34:31;18.60;99.90
3816;DHT22;1923;48.154;11.536;2023-06-24T01:37:07;18.60;99.90
3816;DHT22;1923;48.154;11.536;2023-06-24T01:39:40;18.70;99.90
3816;DHT22;1923;48.154;11.536;2023-06-24T01:42:11;18.60;99.90
3816;DHT22;1923;48.154;11.536;2023-06-24T01:44:43;18.70;99.90
3816;DHT22;1923;48.154;11.536;2023-06-24T01:47:18;18.60;99.90
3816;DHT22;1923;48.154;11.536;2023-06-24T01:49:48;18.60;99.90
3816;DHT22;1923;48.154;11.536;2023-06-24T01:52:21;18.60;99.90
3816;DHT22;1923;48.154;11.536;2023-06-24T01:54:52;18.70;99.90
3816;DHT22;1923;48.154;11.536;2023-06-24T01:57:22;18.60;99.90
3816;DHT22;1923;48.154;11.536;2023-06-24T01:59:53;18.60;99.90
3816;DHT22;1923;48.154;11.536;2023-06-24T02:02:25;18.60;99.90
3816;DHT22;1923;48.154;11.536;2023-06-24T02:04:55;18.60;99.90
3816;DHT22;1923;48.154;11.536;2023-06-24T02:07:24;18.60;99.90
3816;DHT22;1923;48.154;11.536;2023-06-24T02:09:54;18.60;99.90
3816;DHT22;1923;48.154;11.536;2023-06-24T02:12:24;18.70;99.90
3816;DHT22;1923;48.154;11.536;2023-06-24T02:14:52;18.70;99.90
3816;DHT22;1923;48.154;11.536;2023-06-24T02:17:24;18.80;99.90
3816;DHT22;1923;48.154;11.536;2023-06-24T02:19:53;18.70;99.90
3816;DHT22;1923;48.154;11.536;2023-06-24T02:22:22;18.70;99.90
3816;DHT22;1923;48.154;11.536;2023-06-24T02:24:51;18.70;99.90
3816;DHT22;1923;48.154;11.536;2023-06-24T02:27:21;18.70;99.90
3816;DHT22;1923;48.154;11.536;2023-06-24T02:29:50;18.60;99.90
3816;DHT22;1923;48.154;11.536;2023-06-24T02:32:19;18.50;99.90
3816;DHT22;1923;48.154;11.536;2023-06-24T02:34:49;18.60;99.90
3816;DHT22;1923;48.154;11.536;2023-06-24T02:37:17;18.60;99.90
3816;DHT22;1923;48.154;11.536;2023-06-24T02:39:45;18.60;99.90
3816;DHT22;1923;48.154;11.536;2023-06-24T02:42:13;18.60;99.90
3816;DHT22;1923;48.154;11.536;2023-06-24T02:44:41;18.60;99.90
3816;DHT22;1923;48.154;11.536;2023-06-24T02:47:11;18.50;99.90
3816;DHT22;1923;48.154;11.536;2023-06-24T02:49:40;18.50;99.90
3816;DHT22;1923;48.154;11.536;2023-06-24T02:52:11;18.40;99.90
3816;DHT22;1923;48.154;11.536;2023-06-24T02:54:39;18.50;99.90
3816;DHT22;1923;48.154;11.536;2023-06-24T02:57:08;18.50;99.90
3816;DHT22;1923;48.154;11.536;2023-06-24T02:59:36;18.50;99.90
3816;DHT22;1923;48.154;11.536;2023-06-24T03:02:05;18.40;99.90
3816;DHT22;1923;48.154;11.536;2023-06-24T03:04:33;18.40;99.90
3816;DHT22;1923;48.154;11.536;2023-06-24T03:07:02;18.50;99.90
3816;DHT22;1923;48.154;11.536;2023-06-24T03:09:34;18.40;99.90
3816;DHT22;1923;48.154;11.536;2023-06-24T03:12:03;18.40;99.90
3816;DHT22;1923;48.154;11.536;2023-06-24T03:14:31;18.50;99.90
3816;DHT22;1923;48.154;11.536;2023-06-24T03:16:59;18.50;99.90
3816;DHT22;1923;48.154;11.536;2023-06-24T03:19:27;18.40;99.90
3816;DHT22;1923;48.154;11.536;2023-06-24T03:21:55;18.40;99.90
3816;DHT22;1923;48.154;11.536;2023-06-24T03:24:23;18.30;99.90
3816;DHT22;1923;48.154;11.536;2023-06-24T03:26:53;18.40;99.90
3816;DHT22;1923;48.154;11.536;2023-06-24T03:29:23;18.30;99.90
3816;DHT22;1923;48.154;11.536;2023-06-24T03:31:51;18.30;99.90
3816;DHT22;1923;48.154;11.536;2023-06-24T03:34:20;18.40;99.90
3816;DHT22;1923;48.154;11.536;2023-06-24T03:36:48;18.30;99.90
3816;DHT22;1923;48.154;11.536;2023-06-24T03:39:16;18.30;99.90
3816;DHT22;1923;48.154;11.536;2023-06-24T03:41:44;18.20;99.90
3816;DHT22;1923;48.154;11.536;2023-06-24T03:44:14;18.30;99.90
3816;DHT22;1923;48.154;11.536;2023-06-24T03:46:42;18.30;99.90
3816;DHT22;1923;48.154;11.536;2023-06-24T03:49:10;18.20;99.90
3816;DHT22;1923;48.154;11.536;2023-06-24T03:51:38;18.40;99.90
3816;DHT22;1923;48.154;11.536;2023-06-24T03:54:06;18.30;99.90
3816;DHT22;1923;48.154;11.536;2023-06-24T03:56:34;18.40;99.90
3816;DHT22;1923;48.154;11.536;2023-06-24T03:59:02;18.50;99.90
3816;DHT22;1923;48.154;11.536;2023-06-24T04:01:34;18.20;99.90
3816;DHT22;1923;48.154;11.536;2023-06-24T04:04:03;18.40;99.90
3816;DHT22;1923;48.154;11.536;2023-06-24T04:06:31;18.40;99.90
3816;DHT22;1923;48.154;11.536;2023-06-24T04:09:00;18.40;99.90
3816;DHT22;1923;48.154;11.536;2023-06-24T04:11:28;18.50;99.90
3816;DHT22;1923;48.154;11.536;2023-06-24T04:13:56;18.50;99.90
3816;DHT22;1923;48.154;11.536;2023-06-24T04:16:24;18.50;99.90
3816;DHT22;1923;48.154;11.536;2023-06-24T04:18:53;18.40;99.90
3816;DHT22;1923;48.154;11.536;2023-06-24T04:21:21;18.50;99.90
3816;DHT22;1923;48.154;11.536;2023-06-24T04:23:50;18.60;99.90
3816;DHT22;1923;48.154;11.536;2023-06-24T04:26:18;18.60;99.90
3816;DHT22;1923;48.154;11.536;2023-06-24T04:28:46;18.60;99.90
3816;DHT22;1923;48.154;11.536;2023-06-24T04:31:14;18.70;99.90
3816;DHT22;1923;48.154;11.536;2023-06-24T04:33:42;18.70;99.90
3816;DHT22;1923;48.154;11.536;2023-06-24T04:36:11;18.70;99.90
3816;DHT22;1923;48.154;11.536;2023-06-24T04:38:39;18.80;99.90
3816;DHT22;1923;48.154;11.536;2023-06-24T04:41:07;18.90;99.90
3816;DHT22;1923;48.154;11.536;2023-06-24T04:43:35;18.90;99.90
3816;DHT22;1923;48.154;11.536;2023-06-24T04:46:03;18.90;99.90
3816;DHT22;1923;48.154;11.536;2023-06-24T04:48:31;18.90;99.90
3816;DHT22;1923;48.154;11.536;2023-06-24T04:50:59;18.90;99.90
3816;DHT22;1923;48.154;11.536;2023-06-24T04:53:29;18.90;99.90
3816;DHT22;1923;48.154;11.536;2023-06-24T04:55:57;19.00;99.90
3816;DHT22;1923;48.154;11.536;2023-06-24T04:58:25;19.10;99.90
3816;DHT22;1923;48.154;11.536;2023-06-24T05:00:53;19.10;99.90
3816;DHT22;1923;48.154;11.536;2023-06-24T05:03:21;18.90;99.90
3816;DHT22;1923;48.154;11.536;2023-06-24T05:05:49;19.00;99.90
3816;DHT22;1923;48.154;11.536;2023-06-24T05:08:17;19.10;99.90
3816;DHT22;1923;48.154;11.536;2023-06-24T05:10:47;19.20;99.90
3816;DHT22;1923;48.154;11.536;2023-06-24T05:13:15;19.20;99.90
3816;DHT22;1923;48.154;11.536;2023-06-24T05:15:43;19.30;99.90
3816;DHT22;1923;48.154;11.536;2023-06-24T05:18:11;19.50;99.90
3816;DHT22;1923;48.154;11.536;2023-06-24T05:20:39;19.60;99.90
3816;DHT22;1923;48.154;11.536;2023-06-24T05:23:07;19.60;99.90
3816;DHT22;1923;48.154;11.536;2023-06-24T05:25:35;19.80;99.90
3816;DHT22;1923;48.154;11.536;2023-06-24T05:28:05;19.80;99.90
3816;DHT22;1923;48.154;11.536;2023-06-24T05:30:33;19.90;99.90
3816;DHT22;1923;48.154;11.536;2023-06-24T05:33:01;20.00;99.90
3816;DHT22;1923;48.154;11.536;2023-06-24T05:35:29;20.10;99.90
3816;DHT22;1923;48.154;11.536;2023-06-24T05:37:58;20.00;99.90
3816;DHT22;1923;48.154;11.536;2023-06-24T05:40:26;20.00;99.90
3816;DHT22;1923;48.154;11.536;2023-06-24T05:42:54;20.10;99.90
3816;DHT22;1923;48.154;11.536;2023-06-24T05:45:23;20.10;99.90
3816;DHT22;1923;48.154;11.536;2023-06-24T05:47:51;20.20;99.90
3816;DHT22;1923;48.154;11.536;2023-06-24T05:50:20;20.40;99.90
3816;DHT22;1923;48.154;11.536;2023-06-24T05:52:48;20.40;99.90
3816;DHT22;1923;48.154;11.536;2023-06-24T05:55:16;20.50;99.90
3816;DHT22;1923;48.154;11.536;2023-06-24T05:57:44;20.50;99.90
3816;DHT22;1923;48.154;11.536;2023-06-24T06:00:13;20.60;99.90
3816;DHT22;1923;48.154;11.536;2023-06-24T06:02:42;20.70;99.90
3816;DHT22;1923;48.154;11.536;2023-06-24T06:05:10;20.60;99.90
3816;DHT22;1923;48.154;11.536;2023-06-24T06:07:38;20.80;99.90
3816;DHT22;1923;48.154;11.536;2023-06-24T06:10:07;20.80;99.90
3816;DHT22;1923;48.154;11.536;2023-06-24T06:12:36;20.90;99.90
3816;DHT22;1923;48.154;11.536;2023-06-24T06:15:04;20.90;99.90
3816;DHT22;1923;48.154;11.536;2023-06-24T06:17:32;21.00;99.90
3816;DHT22;1923;48.154;11.536;2023-06-24T06:20:03;21.00;99.90
3816;DHT22;1923;48.154;11.536;2023-06-24T06:22:31;21.00;99.90
3816;DHT22;1923;48.154;11.536;2023-06-24T06:25:05;20.90;99.90
3816;DHT22;1923;48.154;11.536;2023-06-24T06:27:33;21.20;99.90
3816;DHT22;1923;48.154;11.536;2023-06-24T06:30:03;21.30;99.90
3816;DHT22;1923;48.154;11.536;2023-06-24T06:32:31;21.50;99.90
3816;DHT22;1923;48.154;11.536;2023-06-24T06:34:59;21.60;99.90
3816;DHT22;1923;48.154;11.536;2023-06-24T06:37:28;21.60;99.90
3816;DHT22;1923;48.154;11.536;2023-06-24T06:39:56;21.80;99.90
3816;DHT22;1923;48.154;11.536;2023-06-24T06:42:25;21.90;99.90
3816;DHT22;1923;48.154;11.536;2023-06-24T06:44:53;22.00;99.90
3816;DHT22;1923;48.154;11.536;2023-06-24T06:47:21;22.10;99.90
3816;DHT22;1923;48.154;11.536;2023-06-24T06:49:49;22.30;99.90
3816;DHT22;1923;48.154;11.536;2023-06-24T06:52:17;22.30;99.90
3816;DHT22;1923;48.154;11.536;2023-06-24T06:54:47;22.50;99.90
3816;DHT22;1923;48.154;11.536;2023-06-24T06:57:15;22.60;99.90
3816;DHT22;1923;48.154;11.536;2023-06-24T06:59:43;22.70;99.90
3816;DHT22;1923;48.154;11.536;2023-06-24T07:02:11;22.90;99.90
3816;DHT22;1923;48.154;11.536;2023-06-24T07:04:39;23.00;99.90
3816;DHT22;1923;48.154;11.536;2023-06-24T07:07:07;23.00;99.90
3816;DHT22;1923;48.154;11.536;2023-06-24T07:09:35;23.30;99.90
3816;DHT22;1923;48.154;11.536;2023-06-24T07:12:06;23.70;99.90
3816;DHT22;1923;48.154;11.536;2023-06-24T07:14:34;23.60;99.90
3816;DHT22;1923;48.154;11.536;2023-06-24T07:17:03;23.60;99.90
3816;DHT22;1923;48.154;11.536;2023-06-24T07:19:31;23.70;99.90
3816;DHT22;1923;48.154;11.536;2023-06-24T07:21:59;23.70;99.90
3816;DHT22;1923;48.154;11.536;2023-06-24T07:24:27;23.90;99.90
3816;DHT22;1923;48.154;11.536;2023-06-24T07:26:55;24.00;99.90
3816;DHT22;1923;48.154;11.536;2023-06-24T07:29:24;23.90;99.90
3816;DHT22;1923;48.154;11.536;2023-06-24T07:31:53;23.90;99.90
3816;DHT22;1923;48.154;11.536;2023-06-24T07:34:21;23.70;99.90
3816;DHT22;1923;48.154;11.536;2023-06-24T07:36:49;23.60;99.90
3816;DHT22;1923;48.154;11.536;2023-06-24T07:39:17;23.80;99.90
3816;DHT22;1923;48.154;11.536;2023-06-24T07:41:45;23.80;99.90
3816;DHT22;1923;48.154;11.536;2023-06-24T07:44:13;23.80;99.90
3816;DHT22;1923;48.154;11.536;2023-06-24T07:46:43;23.90;99.90
3816;DHT22;1923;48.154;11.536;2023-06-24T07:49:11;24.10;99.90
3816;DHT22;1923;48.154;11.536;2023-06-24T07:51:39;24.00;99.90
3816;DHT22;1923;48.154;11.536;2023-06-24T07:54:07;23.70;99.90
3816;DHT22;1923;48.154;11.536;2023-06-24T07:56:35;23.80;99.90
3816;DHT22;1923;48.154;11.536;2023-06-24T07:59:03;23.90;99.90
3816;DHT22;1923;48.154;11.536;2023-06-24T08:01:31;24.00;99.90
3816;DHT22;1923;48.154;11.536;2023-06-24T08:04:01;23.80;99.90
3816;DHT22;1923;48.154;11.536;2023-06-24T08:06:30;23.70;99.90
3816;DHT22;1923;48.154;11.536;2023-06-24T08:08:58;23.90;99.90
3816;DHT22;1923;48.154;11.536;2023-06-24T08:11:26;23.90;99.90
3816;DHT22;1923;48.154;11.536;2023-06-24T08:13:54;23.90;99.90
3816;DHT22;1923;48.154;11.536;2023-06-24T08:16:22;23.90;99.90
3816;DHT22;1923;48.154;11.536;2023-06-24T08:18:50;24.00;99.90
3816;DHT22;1923;48.154;11.536;2023-06-24T08:21:20;24.00;99.90
3816;DHT22;1923;48.154;11.536;2023-06-24T08:23:47;24.30;99.90
3816;DHT22;1923;48.154;11.536;2023-06-24T08:26:16;24.40;99.90
3816;DHT22;1923;48.154;11.536;2023-06-24T08:28:46;24.70;99.90
3816;DHT22;1923;48.154;11.536;2023-06-24T08:31:14;24.90;99.90
3816;DHT22;1923;48.154;11.536;2023-06-24T08:33:43;25.40;99.90
3816;DHT22;1923;48.154;11.536;2023-06-24T08:36:11;25.40;99.60
3816;DHT22;1923;48.154;11.536;2023-06-24T08:38:41;25.50;99.80
3816;DHT22;1923;48.154;11.536;2023-06-24T08:41:09;25.70;99.10
3816;DHT22;1923;48.154;11.536;2023-06-24T08:43:37;26.60;98.60
3816;DHT22;1923;48.154;11.536;2023-06-24T08:46:05;27.10;97.10
3816;DHT22;1923;48.154;11.536;2023-06-24T08:48:35;27.10;95.80
3816;DHT22;1923;48.154;11.536;2023-06-24T08:51:08;27.50;95.70
3816;DHT22;1923;48.154;11.536;2023-06-24T08:53:37;28.20;94.30
3816;DHT22;1923;48.154;11.536;2023-06-24T08:56:08;29.10;92.50
3816;DHT22;1923;48.154;11.536;2023-06-24T08:58:36;29.10;92.50
3816;DHT22;1923;48.154;11.536;2023-06-24T09:01:06;30.00;91.60
3816;DHT22;1923;48.154;11.536;2023-06-24T09:03:35;30.70;90.60
3816;DHT22;1923;48.154;11.536;2023-06-24T09:06:03;30.60;87.60
3816;DHT22;1923;48.154;11.536;2023-06-24T09:08:31;30.80;88.30
3816;DHT22;1923;48.154;11.536;2023-06-24T09:11:02;30.70;87.30
3816;DHT22;1923;48.154;11.536;2023-06-24T09:13:35;30.30;86.20
3816;DHT22;1923;48.154;11.536;2023-06-24T09:16:14;30.00;88.50
3816;DHT22;1923;48.154;11.536;2023-06-24T09:18:47;30.00;87.50
3816;DHT22;1923;48.154;11.536;2023-06-24T09:21:22;29.60;86.80
3816;DHT22;1923;48.154;11.536;2023-06-24T09:23:54;28.90;87.80
3816;DHT22;1923;48.154;11.536;2023-06-24T09:26:23;28.00;90.20
3816;DHT22;1923;48.154;11.536;2023-06-24T09:28:53;27.70;90.10
3816;DHT22;1923;48.154;11.536;2023-06-24T09:31:23;27.30;91.20
3816;DHT22;1923;48.154;11.536;2023-06-24T09:33:52;27.20;91.10
3816;DHT22;1923;48.154;11.536;2023-06-24T09:36:24;26.90;91.10
3816;DHT22;1923;48.154;11.536;2023-06-24T09:38:55;27.00;91.50
3816;DHT22;1923;48.154;11.536;2023-06-24T09:41:24;27.20;91.50
3816;DHT22;1923;48.154;11.536;2023-06-24T09:43:58;29.00;90.30
3816;DHT22;1923;48.154;11.536;2023-06-24T09:46:27;30.90;88.80
3816;DHT22;1923;48.154;11.536;2023-06-24T09:48:57;32.40;84.50
3816;DHT22;1923;48.154;11.536;2023-06-24T09:51:25;32.40;79.60
3816;DHT22;1923;48.154;11.536;2023-06-24T09:53:53;32.70;78.30
3816;DHT22;1923;48.154;11.536;2023-06-24T09:56:24;32.10;78.50
3816;DHT22;1923;48.154;11.536;2023-06-24T09:58:53;31.10;78.40
3816;DHT22;1923;48.154;11.536;2023-06-24T10:01:22;29.90;78.80
3816;DHT22;1923;48.154;11.536;2023-06-24T10:03:50;29.20;81.00
3816;DHT22;1923;48.154;11.536;2023-06-24T10:06:19;28.20;81.80
3816;DHT22;1923;48.154;11.536;2023-06-24T10:08:47;27.80;85.70
3816;DHT22;1923;48.154;11.536;2023-06-24T10:11:15;27.30;85.70
3816;DHT22;1923;48.154;11.536;2023-06-24T10:13:43;27.10;86.10
3816;DHT22;1923;48.154;11.536;2023-06-24T10:16:11;27.70;88.40
3816;DHT22;1923;48.154;11.536;2023-06-24T10:18:41;29.30;83.50
3816;DHT22;1923;48.154;11.536;2023-06-24T10:21:12;30.20;80.80
3816;DHT22;1923;48.154;11.536;2023-06-24T10:23:42;32.00;79.80
3816;DHT22;1923;48.154;11.536;2023-06-24T10:26:14;33.60;72.10
3816;DHT22;1923;48.154;11.536;2023-06-24T10:29:10;33.00;69.10
3816;DHT22;1923;48.154;11.536;2023-06-24T10:31:51;32.40;70.50
3816;DHT22;1923;48.154;11.536;2023-06-24T10:34:38;31.50;71.50
3816;DHT22;1923;48.154;11.536;2023-06-24T10:37:10;30.90;73.80
3816;DHT22;1923;48.154;11.536;2023-06-24T10:39:50;31.50;71.30
3816;DHT22;1923;48.154;11.536;2023-06-24T10:42:32;32.50;69.60
3816;DHT22;1923;48.154;11.536;2023-06-24T10:45:02;32.20;68.00
3816;DHT22;1923;48.154;11.536;2023-06-24T10:47:41;33.00;64.40
3816;DHT22;1923;48.154;11.536;2023-06-24T10:50:12;34.10;61.70
3816;DHT22;1923;48.154;11.536;2023-06-24T10:52:42;35.10;61.10
3816;DHT22;1923;48.154;11.536;2023-06-24T10:55:13;35.80;59.00
3816;DHT22;1923;48.154;11.536;2023-06-24T10:57:42;36.80;58.40
3816;DHT22;1923;48.154;11.536;2023-06-24T11:00:11;37.20;54.20
3816;DHT22;1923;48.154;11.536;2023-06-24T11:02:40;36.80;53.40
3816;DHT22;1923;48.154;11.536;2023-06-24T11:05:10;35.40;54.50
3816;DHT22;1923;48.154;11.536;2023-06-24T11:07:39;34.20;56.20
3816;DHT22;1923;48.154;11.536;2023-06-24T11:10:12;33.00;57.50
3816;DHT22;1923;48.154;11.536;2023-06-24T11:12:41;31.40;59.30
3816;DHT22;1923;48.154;11.536;2023-06-24T11:15:11;30.00;61.30
3816;DHT22;1923;48.154;11.536;2023-06-24T11:17:40;29.30;63.70
3816;DHT22;1923;48.154;11.536;2023-06-24T11:20:12;28.90;64.50
3816;DHT22;1923;48.154;11.536;2023-06-24T11:22:41;28.80;62.90
3816;DHT22;1923;48.154;11.536;2023-06-24T11:25:15;28.50;60.90
3816;DHT22;1923;48.154;11.536;2023-06-24T11:27:44;28.10;60.70
3816;DHT22;1923;48.154;11.536;2023-06-24T11:30:13;27.40;62.00
3816;DHT22;1923;48.154;11.536;2023-06-24T11:32:42;27.10;62.20
3816;DHT22;1923;48.154;11.536;2023-06-24T11:35:13;26.70;62.20
3816;DHT22;1923;48.154;11.536;2023-06-24T11:37:43;26.80;64.20
3816;DHT22;1923;48.154;11.536;2023-06-24T11:40:12;27.00;64.90
3816;DHT22;1923;48.154;11.536;2023-06-24T11:42:43;26.80;62.80
3816;DHT22;1923;48.154;11.536;2023-06-24T11:45:13;26.90;64.00
3816;DHT22;1923;48.154;11.536;2023-06-24T11:47:42;27.00;66.00
3816;DHT22;1923;48.154;11.536;2023-06-24T11:50:12;26.80;69.10
3816;DHT22;1923;48.154;11.536;2023-06-24T11:52:41;26.60;69.50
3816;DHT22;1923;48.154;11.536;2023-06-24T11:55:16;26.50;70.80
3816;DHT22;1923;48.154;11.536;2023-06-24T11:57:49;26.50;70.80
3816;DHT22;1923;48.154;11.536;2023-06-24T12:00:20;26.30;70.70
3816;DHT22;1923;48.154;11.536;2023-06-24T12:02:50;26.10;71.20
3816;DHT22;1923;48.154;11.536;2023-06-24T12:05:28;26.00;71.20
3816;DHT22;1923;48.154;11.536;2023-06-24T12:07:58;26.00;72.10
3816;DHT22;1923;48.154;11.536;2023-06-24T12:10:27;25.70;71.60
3816;DHT22;1923;48.154;11.536;2023-06-24T12:12:56;25.80;72.00
3816;DHT22;1923;48.154;11.536;2023-06-24T12:15:25;25.70;71.70
3816;DHT22;1923;48.154;11.536;2023-06-24T12:17:54;25.40;71.50
3816;DHT22;1923;48.154;11.536;2023-06-24T12:20:24;25.10;72.20
3816;DHT22;1923;48.154;11.536;2023-06-24T12:22:57;25.00;73.30
3816;DHT22;1923;48.154;11.536;2023-06-24T12:25:25;24.80;74.20
3816;DHT22;1923;48.154;11.536;2023-06-24T12:27:53;24.90;73.90
3816;DHT22;1923;48.154;11.536;2023-06-24T12:30:21;25.00;73.70
3816;DHT22;1923;48.154;11.536;2023-06-24T12:32:50;25.00;74.30
3816;DHT22;1923;48.154;11.536;2023-06-24T12:35:19;25.10;74.50
3816;DHT22;1923;48.154;11.536;2023-06-24T12:37:47;25.10;74.70
3816;DHT22;1923;48.154;11.536;2023-06-24T12:40:17;25.20;74.50
3816;DHT22;1923;48.154;11.536;2023-06-24T12:42:46;25.50;73.70
3816;DHT22;1923;48.154;11.536;2023-06-24T12:45:14;25.70;72.50
3816;DHT22;1923;48.154;11.536;2023-06-24T12:47:42;25.70;72.90
3816;DHT22;1923;48.154;11.536;2023-06-24T12:50:10;25.70;73.50
3816;DHT22;1923;48.154;11.536;2023-06-24T12:52:38;25.60;73.60
3816;DHT22;1923;48.154;11.536;2023-06-24T12:55:07;25.70;72.10
3816;DHT22;1923;48.154;11.536;2023-06-24T12:57:37;25.70;73.60
3816;DHT22;1923;48.154;11.536;2023-06-24T13:00:06;25.30;74.20
3816;DHT22;1923;48.154;11.536;2023-06-24T13:02:35;25.40;75.30
3816;DHT22;1923;48.154;11.536;2023-06-24T13:05:04;25.40;74.60
3816;DHT22;1923;48.154;11.536;2023-06-24T13:07:32;25.10;74.80
3816;DHT22;1923;48.154;11.536;2023-06-24T13:10:00;24.90;75.80
3816;DHT22;1923;48.154;11.536;2023-06-24T13:12:29;25.10;76.10
3816;DHT22;1923;48.154;11.536;2023-06-24T13:14:58;25.00;76.40
3816;DHT22;1923;48.154;11.536;2023-06-24T13:17:26;24.70;75.90
3816;DHT22;1923;48.154;11.536;2023-06-24T13:19:54;24.80;76.40
3816;DHT22;1923;48.154;11.536;2023-06-24T13:22:23;24.70;74.90
3816;DHT22;1923;48.154;11.536;2023-06-24T13:24:51;24.40;75.30
3816;DHT22;1923;48.154;11.536;2023-06-24T13:27:19;24.40;76.80
3816;DHT22;1923;48.154;11.536;2023-06-24T13:29:47;24.60;75.10
3816;DHT22;1923;48.154;11.536;2023-06-24T13:32:17;24.70;72.60
3816;DHT22;1923;48.154;11.536;2023-06-24T13:34:45;24.80;73.20
3816;DHT22;1923;48.154;11.536;2023-06-24T13:37:13;25.10;74.00
3816;DHT22;1923;48.154;11.536;2023-06-24T13:39:42;25.20;71.70
3816;DHT22;1923;48.154;11.536;2023-06-24T13:42:10;25.30;72.10
3816;DHT22;1923;48.154;11.536;2023-06-24T13:44:39;25.20;72.50
3816;DHT22;1923;48.154;11.536;2023-06-24T13:47:07;25.20;73.10
3816;DHT22;1923;48.154;11.536;2023-06-24T13:49:37;25.20;72.50
3816;DHT22;1923;48.154;11.536;2023-06-24T13:52:05;25.40;73.20
3816;DHT22;1923;48.154;11.536;2023-06-24T13:54:34;25.30;73.60
3816;DHT22;1923;48.154;11.536;2023-06-24T13:57:02;25.00;74.00
3816;DHT22;1923;48.154;11.536;2023-06-24T13:59:30;25.10;73.30
3816;DHT22;1923;48.154;11.536;2023-06-24T14:01:58;24.90;74.00
3816;DHT22;1923;48.154;11.536;2023-06-24T14:04:27;24.80;73.20
3816;DHT22;1923;48.154;11.536;2023-06-24T14:06:56;24.70;73.50
3816;DHT22;1923;48.154;11.536;2023-06-24T14:09:24;24.50;73.20
3816;DHT22;1923;48.154;11.536;2023-06-24T14:11:52;24.50;74.90
3816;DHT22;1923;48.154;11.536;2023-06-24T14:14:22;24.50;74.30
3816;DHT22;1923;48.154;11.536;2023-06-24T14:16:50;24.40;73.60
3816;DHT22;1923;48.154;11.536;2023-06-24T14:19:18;24.40;73.90
3816;DHT22;1923;48.154;11.536;2023-06-24T14:21:46;24.40;74.90
3816;DHT22;1923;48.154;11.536;2023-06-24T14:24:16;24.50;74.40
3816;DHT22;1923;48.154;11.536;2023-06-24T14:26:44;24.50;75.30
3816;DHT22;1923;48.154;11.536;2023-06-24T14:29:16;24.60;75.70
3816;DHT22;1923;48.154;11.536;2023-06-24T14:31:44;24.70;75.50
3816;DHT22;1923;48.154;11.536;2023-06-24T14:34:12;24.70;75.60
3816;DHT22;1923;48.154;11.536;2023-06-24T14:36:40;24.70;75.70
3816;DHT22;1923;48.154;11.536;2023-06-24T14:39:09;24.70;75.80
3816;DHT22;1923;48.154;11.536;2023-06-24T14:41:38;24.70;75.80
3816;DHT22;1923;48.154;11.536;2023-06-24T14:44:06;24.50;75.60
3816;DHT22;1923;48.154;11.536;2023-06-24T14:46:35;24.50;76.30
3816;DHT22;1923;48.154;11.536;2023-06-24T14:49:03;24.50;75.60
3816;DHT22;1923;48.154;11.536;2023-06-24T14:51:31;24.40;76.10
3816;DHT22;1923;48.154;11.536;2023-06-24T14:53:59;24.30;76.20
3816;DHT22;1923;48.154;11.536;2023-06-24T14:56:27;24.40;77.30
3816;DHT22;1923;48.154;11.536;2023-06-24T14:58:57;24.40;77.80
3816;DHT22;1923;48.154;11.536;2023-06-24T15:01:25;24.40;77.40
3816;DHT22;1923;48.154;11.536;2023-06-24T15:03:53;24.40;78.20
3816;DHT22;1923;48.154;11.536;2023-06-24T15:06:21;24.50;77.40
3816;DHT22;1923;48.154;11.536;2023-06-24T15:08:49;24.50;77.00
3816;DHT22;1923;48.154;11.536;2023-06-24T15:11:17;24.50;76.90
3816;DHT22;1923;48.154;11.536;2023-06-24T15:13:45;24.50;77.90
3816;DHT22;1923;48.154;11.536;2023-06-24T15:16:15;24.50;77.10
3816;DHT22;1923;48.154;11.536;2023-06-24T15:18:46;24.50;76.90
3816;DHT22;1923;48.154;11.536;2023-06-24T15:21:14;24.40;77.50
3816;DHT22;1923;48.154;11.536;2023-06-24T15:24:01;24.40;77.60
3816;DHT22;1923;48.154;11.536;2023-06-24T15:26:29;24.50;77.40
3816;DHT22;1923;48.154;11.536;2023-06-24T15:28:57;24.50;76.40
3816;DHT22;1923;48.154;11.536;2023-06-24T15:31:27;24.50;76.90
3816;DHT22;1923;48.154;11.536;2023-06-24T15:33:55;24.50;77.70
3816;DHT22;1923;48.154;11.536;2023-06-24T15:36:24;24.60;77.70
3816;DHT22;1923;48.154;11.536;2023-06-24T15:38:53;24.70;76.90
3816;DHT22;1923;48.154;11.536;2023-06-24T15:41:22;24.70;76.90
3816;DHT22;1923;48.154;11.536;2023-06-24T15:43:50;24.70;76.00
3816;DHT22;1923;48.154;11.536;2023-06-24T15:46:18;24.70;75.60
3816;DHT22;1923;48.154;11.536;2023-06-24T15:48:47;24.90;74.90
3816;DHT22;1923;48.154;11.536;2023-06-24T15:51:16;24.90;74.80
3816;DHT22;1923;48.154;11.536;2023-06-24T15:53:46;24.90;75.20
3816;DHT22;1923;48.154;11.536;2023-06-24T15:56:14;24.90;75.70
3816;DHT22;1923;48.154;11.536;2023-06-24T15:58:42;25.00;74.30
3816;DHT22;1923;48.154;11.536;2023-06-24T16:01:10;25.00;74.80